Time;durP1;ratioP1;P1;durP2;ratioP2;P2;SDS_P1;SDS_P2;PMS_P1;PMS_P2;Temp;Humidity;BMP_temperature;BMP_pressure;BME280_temperature;BME280_humidity;BME280_pressure;Samples;Min_cycle;Max_cycle;Signal;HPM_P1;HPM_P2
2022/06/02 00:00:20;;;;;;;1.98;1.85;;;17.60;64.70;;;;;;5073733;28;20209;-71
2022/06/02 00:03:19;;;;;;;2.30;1.85;;;17.50;64.70;;;;;;5073879;28;20209;-70
2022/06/02 00:05:59;;;;;;;2.70;2.10;;;17.60;64.80;;;;;;5061666;28;20252;-71
2022/06/02 00:08:45;;;;;;;2.60;2.40;;;17.40;65.10;;;;;;5073473;28;20227;-71
2022/06/02 00:11:29;;;;;;;2.63;2.40;;;17.30;66.00;;;;;;5073424;28;20203;-71
2022/06/02 00:14:05;;;;;;;1.83;1.73;;;17.20;66.20;;;;;;5073260;28;20226;-71
2022/06/02 00:16:43;;;;;;;2.30;2.10;;;17.20;67.10;;;;;;5073537;28;20201;-71
2022/06/02 00:19:19;;;;;;;2.30;2.10;;;17.20;66.30;;;;;;5073462;28;20233;-71
2022/06/02 00:21:52;;;;;;;2.03;1.88;;;17.10;65.80;;;;;;5073521;28;20223;-71
2022/06/02 00:24:33;;;;;;;2.00;1.90;;;17.10;66.50;;;;;;5073331;28;20202;-71
2022/06/02 00:27:04;;;;;;;2.10;2.00;;;17.10;66.00;;;;;;5073543;28;20295;-71
2022/06/02 00:29:41;;;;;;;2.05;1.95;;;17.00;66.30;;;;;;5073090;28;20237;-71
2022/06/02 00:32:17;;;;;;;2.33;2.17;;;16.90;67.00;;;;;;5073207;28;20202;-70
2022/06/02 00:34:50;;;;;;;2.00;1.90;;;16.80;67.50;;;;;;5073337;28;20222;-71
2022/06/02 00:37:24;;;;;;;3.75;2.30;;;16.80;67.50;;;;;;5073329;28;20627;-71
2022/06/02 00:39:53;;;;;;;1.83;1.73;;;16.70;67.90;;;;;;5077386;28;20221;-71
2022/06/02 00:42:37;;;;;;;1.98;1.88;;;16.50;69.30;;;;;;5077160;28;20199;-71
2022/06/02 00:45:07;;;;;;;2.10;2.00;;;16.40;68.70;;;;;;5077344;28;20575;-71
2022/06/02 00:47:46;;;;;;;2.22;2.13;;;16.50;69.60;;;;;;5077160;28;20202;-71
2022/06/02 00:50:26;;;;;;;2.00;1.80;;;16.50;68.90;;;;;;5077199;28;20190;-71
2022/06/02 00:53:04;;;;;;;2.38;2.28;;;16.60;68.80;;;;;;5076582;28;20574;-71
2022/06/02 00:58:34;;;;;;;2.50;2.30;;;16.70;69.30;;;;;;5077027;28;20224;-71
2022/06/02 01:01:09;;;;;;;2.63;2.42;;;16.80;69.60;;;;;;5077062;28;20252;-71
2022/06/02 01:03:42;;;;;;;2.38;2.17;;;16.70;69.00;;;;;;5076756;28;20202;-71
2022/06/02 01:06:30;;;;;;;2.03;1.90;;;16.60;68.70;;;;;;5077024;28;20301;-71
2022/06/02 01:09:16;;;;;;;2.55;2.35;;;16.60;70.20;;;;;;5076702;28;20707;-71
2022/06/02 01:11:54;;;;;;;2.60;2.05;;;16.50;69.50;;;;;;5076775;28;20205;-71
2022/06/02 01:14:37;;;;;;;2.50;2.30;;;16.40;69.60;;;;;;5076511;28;20235;-71
2022/06/02 01:17:16;;;;;;;2.28;2.08;;;16.50;70.90;;;;;;5076697;28;20572;-70
2022/06/02 01:20:16;;;;;;;2.67;2.47;;;16.60;70.80;;;;;;5076639;28;20207;-71
2022/06/02 01:23:26;;;;;;;2.70;2.50;;;16.80;70.60;;;;;;5063321;28;20203;-70
2022/06/02 01:26:13;;;;;;;2.50;2.30;;;16.70;70.50;;;;;;5060954;28;20297;-71
2022/06/02 01:28:57;;;;;;;2.13;2.00;;;16.80;70.00;;;;;;5076478;28;20561;-71
2022/06/02 01:31:39;;;;;;;2.30;2.10;;;16.60;69.90;;;;;;5076537;28;20209;-71
2022/06/02 01:34:18;;;;;;;3.00;2.13;;;16.40;70.30;;;;;;5075879;28;20233;-70
2022/06/02 01:36:53;;;;;;;3.60;2.30;;;16.20;71.20;;;;;;5076358;28;20206;-71
2022/06/02 01:39:33;;;;;;;2.75;2.00;;;16.20;71.40;;;;;;5076650;28;20233;-71
2022/06/02 01:42:09;;;;;;;2.35;2.25;;;16.30;72.40;;;;;;5076367;28;20215;-71
2022/06/02 01:44:44;;;;;;;2.50;2.30;;;16.20;72.20;;;;;;5076129;28;20711;-71
2022/06/02 01:47:19;;;;;;;3.25;2.40;;;16.20;72.40;;;;;;5076181;28;20210;-71
2022/06/02 01:50:06;;;;;;;2.45;2.25;;;16.30;72.10;;;;;;5075054;28;20193;-71
2022/06/02 01:52:45;;;;;;;3.05;2.40;;;16.20;72.00;;;;;;5075787;28;20301;-72
2022/06/02 01:55:28;;;;;;;2.85;2.10;;;16.10;72.80;;;;;;5075906;28;20579;-70
2022/06/02 01:58:04;;;;;;;3.30;2.10;;;16.00;73.30;;;;;;5075682;28;20235;-71
2022/06/02 02:00:34;;;;;;;2.40;2.25;;;15.90;73.90;;;;;;5076019;28;20558;-71
2022/06/02 02:03:14;;;;;;;2.13;2.03;;;15.90;75.10;;;;;;5075542;28;20255;-71
2022/06/02 02:06:03;;;;;;;3.75;2.30;;;15.80;74.90;;;;;;5075850;28;20206;-70
2022/06/02 02:08:48;;;;;;;2.53;2.33;;;15.80;75.70;;;;;;5075907;28;20268;-71
2022/06/02 02:11:32;;;;;;;2.17;2.00;;;15.90;76.40;;;;;;5075706;28;20215;-71
2022/06/02 02:14:06;;;;;;;2.55;2.30;;;15.90;75.80;;;;;;5075382;28;20221;-71
2022/06/02 02:16:53;;;;;;;2.50;2.30;;;15.90;75.60;;;;;;5075460;28;20206;-71
2022/06/02 02:19:27;;;;;;;2.65;2.45;;;15.80;75.60;;;;;;5075795;28;20579;-71
2022/06/02 02:22:04;;;;;;;2.60;2.40;;;15.80;76.20;;;;;;5075656;28;20201;-71
2022/06/02 02:24:54;;;;;;;2.20;2.10;;;15.70;77.00;;;;;;5075804;28;20201;-70
2022/06/02 02:27:27;;;;;;;2.30;2.20;;;15.70;77.20;;;;;;5075318;28;20204;-70
2022/06/02 02:30:02;;;;;;;3.58;2.45;;;15.60;77.20;;;;;;5075097;28;20184;-71
2022/06/02 02:32:35;;;;;;;2.60;2.40;;;15.50;77.70;;;;;;5075032;28;20204;-70
2022/06/02 02:35:12;;;;;;;2.30;2.20;;;15.50;77.90;;;;;;5075177;28;20231;-70
2022/06/02 02:37:46;;;;;;;3.47;2.50;;;15.50;78.70;;;;;;5075080;28;20220;-71
2022/06/02 02:40:19;;;;;;;2.72;2.53;;;15.50;78.50;;;;;;5075174;28;20281;-71
2022/06/02 02:42:51;;;;;;;2.22;2.10;;;15.60;78.20;;;;;;5074809;28;20220;-71
2022/06/02 02:45:40;;;;;;;2.97;2.30;;;15.60;77.80;;;;;;5074817;28;20660;-70
2022/06/02 02:48:16;;;;;;;2.78;2.58;;;15.50;78.20;;;;;;5074938;28;20362;-70
2022/06/02 02:50:53;;;;;;;2.25;2.10;;;15.40;78.60;;;;;;5075014;28;20199;-71
2022/06/02 02:53:25;;;;;;;2.53;2.33;;;15.40;78.60;;;;;;5074366;28;20676;-71
2022/06/02 02:55:57;;;;;;;2.67;2.47;;;15.30;79.00;;;;;;5074781;28;20295;-70
2022/06/02 02:58:31;;;;;;;3.20;2.90;;;15.30;79.40;;;;;;5074710;28;20220;-70
2022/06/02 03:01:03;;;;;;;2.63;2.50;;;15.30;78.50;;;;;;5074583;28;20310;-71
2022/06/02 03:03:41;;;;;;;3.20;2.67;;;15.30;78.60;;;;;;5074224;28;20208;-71
2022/06/02 03:06:20;;;;;;;2.33;2.22;;;15.30;78.70;;;;;;5074643;28;20209;-71
2022/06/02 03:08:54;;;;;;;2.92;2.72;;;15.20;79.30;;;;;;5074268;28;20234;-70
2022/06/02 03:11:54;;;;;;;2.90;2.70;;;15.30;79.70;;;;;;5074602;28;20226;-71
2022/06/02 03:14:39;;;;;;;2.90;2.70;;;15.30;78.80;;;;;;5074334;28;20235;-71
2022/06/02 03:17:18;;;;;;;2.78;2.58;;;15.20;79.30;;;;;;5074452;28;20212;-71
2022/06/02 03:19:54;;;;;;;5.20;2.60;;;15.20;80.00;;;;;;5074409;28;20276;-71
2022/06/02 03:22:40;;;;;;;2.70;2.50;;;15.20;79.90;;;;;;5074077;28;20211;-71
2022/06/02 03:25:13;;;;;;;3.08;2.78;;;15.30;79.70;;;;;;5074271;28;20210;-70
2022/06/02 03:27:48;;;;;;;3.72;3.42;;;15.30;79.00;;;;;;5074105;28;20228;-70
2022/06/02 03:30:22;;;;;;;2.90;2.70;;;15.20;78.10;;;;;;5074192;28;20195;-71
2022/06/02 03:33:22;;;;;;;3.45;2.80;;;15.20;78.00;;;;;;5074078;28;20208;-71
2022/06/02 03:35:58;;;;;;;2.60;2.40;;;15.20;78.10;;;;;;5074063;28;20233;-71
2022/06/02 03:38:48;;;;;;;2.70;2.50;;;15.20;79.40;;;;;;5073883;28;20315;-70
2022/06/02 03:41:29;;;;;;;3.00;2.80;;;15.20;79.20;;;;;;5073761;28;20665;-71
2022/06/02 03:44:08;;;;;;;3.72;3.40;;;15.10;78.60;;;;;;5073830;28;20200;-71
2022/06/02 03:46:59;;;;;;;2.67;2.47;;;15.10;79.60;;;;;;5073983;28;20204;-71
2022/06/02 03:49:50;;;;;;;3.15;2.85;;;15.10;79.90;;;;;;5071071;28;20286;-71
2022/06/02 03:52:31;;;;;;;2.60;2.50;;;15.30;80.40;;;;;;5073898;28;20209;-71
2022/06/02 03:55:16;;;;;;;2.60;2.40;;;15.40;80.40;;;;;;5073956;28;20230;-71
2022/06/02 03:57:59;;;;;;;2.75;2.55;;;15.50;80.30;;;;;;5073650;28;20231;-71
2022/06/02 04:00:29;;;;;;;2.55;2.35;;;15.50;80.20;;;;;;5073533;28;20441;-71
2022/06/02 04:03:01;;;;;;;3.08;2.83;;;15.50;80.90;;;;;;5073580;28;20244;-70
2022/06/02 04:05:48;;;;;;;2.90;2.60;;;15.60;81.10;;;;;;5073684;28;20207;-71
2022/06/02 04:08:38;;;;;;;2.90;2.70;;;15.70;80.70;;;;;;5073743;28;20231;-71
2022/06/02 04:11:17;;;;;;;3.15;2.92;;;15.60;80.30;;;;;;5073638;28;20299;-71
2022/06/02 04:13:53;;;;;;;3.05;2.85;;;15.60;81.00;;;;;;5072629;28;20201;-71
2022/06/02 04:16:54;;;;;;;2.85;2.65;;;15.50;81.50;;;;;;5073525;28;20552;-71
2022/06/02 04:22:44;;;;;;;3.03;2.85;;;15.60;83.30;;;;;;5073377;28;20685;-71
2022/06/02 04:25:28;;;;;;;3.20;2.90;;;15.50;83.70;;;;;;5073496;28;20292;-71
2022/06/02 04:28:05;;;;;;;3.15;2.95;;;15.40;84.50;;;;;;5073299;28;20228;-71
2022/06/02 04:30:38;;;;;;;2.90;2.70;;;15.40;84.50;;;;;;5073756;28;20203;-71
2022/06/02 04:33:13;;;;;;;3.55;3.33;;;15.20;85.80;;;;;;5073294;28;20204;-70
2022/06/02 04:35:47;;;;;;;3.55;3.25;;;15.10;85.40;;;;;;5073960;28;20236;-71
2022/06/02 04:38:22;;;;;;;3.20;3.00;;;15.00;84.70;;;;;;5073267;28;20315;-71
2022/06/02 04:40:59;;;;;;;3.03;2.83;;;15.00;84.20;;;;;;5073428;28;20193;-71
2022/06/02 04:43:37;;;;;;;3.20;2.90;;;15.00;84.40;;;;;;5072957;28;20204;-70
2022/06/02 04:46:17;;;;;;;3.10;2.75;;;14.90;86.50;;;;;;5073327;28;20209;-71
2022/06/02 04:48:53;;;;;;;3.30;3.10;;;15.00;87.10;;;;;;5072988;28;20703;-71
2022/06/02 04:51:26;;;;;;;3.13;2.92;;;15.10;86.70;;;;;;5073246;28;20216;-70
2022/06/02 04:54:01;;;;;;;3.08;2.88;;;15.20;86.10;;;;;;5072803;28;20213;-70
2022/06/02 04:56:34;;;;;;;2.60;2.40;;;15.20;86.70;;;;;;5073367;28;20566;-71
2022/06/02 04:59:11;;;;;;;4.00;3.50;;;15.10;88.30;;;;;;5072840;28;20224;-71
2022/06/02 05:01:53;;;;;;;2.85;2.65;;;15.20;87.30;;;;;;5073048;28;20219;-71
2022/06/02 05:04:27;;;;;;;2.67;2.58;;;15.30;87.30;;;;;;5072944;28;20204;-70
2022/06/02 05:07:07;;;;;;;3.28;3.03;;;15.40;87.70;;;;;;5072882;28;20200;-71
2022/06/02 05:09:38;;;;;;;3.10;2.90;;;15.30;87.70;;;;;;5072741;28;20703;-71
2022/06/02 05:12:16;;;;;;;3.25;3.03;;;15.30;88.80;;;;;;5073029;28;20205;-71
2022/06/02 05:14:54;;;;;;;3.17;2.97;;;15.30;87.20;;;;;;5072940;28;20595;-71
2022/06/02 05:18:08;;;;;;;3.28;3.08;;;15.30;89.90;;;;;;5073439;28;20256;-71
2022/06/02 05:21:05;;;;;;;3.72;3.42;;;15.40;87.30;;;;;;5011075;28;20195;-71
2022/06/02 05:23:59;;;;;;;3.35;3.10;;;15.40;86.60;;;;;;5011242;28;20207;-71
2022/06/02 05:27:19;;;;;;;3.70;3.50;;;15.50;84.80;;;;;;5072138;28;20572;-71
2022/06/02 05:30:07;;;;;;;3.50;3.20;;;15.60;84.00;;;;;;5000250;28;20206;-71
2022/06/02 05:33:06;;;;;;;4.25;3.30;;;15.70;83.70;;;;;;5076351;28;20205;-71
2022/06/02 05:36:01;;;;;;;3.80;3.50;;;15.70;82.50;;;;;;5064579;28;20231;-71
2022/06/02 05:38:55;;;;;;;4.18;3.78;;;15.70;83.20;;;;;;5076016;28;20221;-71
2022/06/02 05:41:36;;;;;;;3.47;3.17;;;15.80;84.80;;;;;;5076264;28;20209;-70
2022/06/02 05:44:13;;;;;;;3.25;2.95;;;15.80;82.90;;;;;;5075766;28;20208;-70
2022/06/02 05:46:58;;;;;;;4.53;3.38;;;15.90;82.90;;;;;;5075987;28;20666;-71
2022/06/02 05:49:35;;;;;;;4.68;3.13;;;15.90;84.30;;;;;;5075849;28;20712;-70
2022/06/02 05:52:11;;;;;;;3.85;3.55;;;15.90;83.00;;;;;;5076090;28;20213;-71
2022/06/02 05:54:48;;;;;;;4.90;3.50;;;16.00;81.50;;;;;;5075909;28;20661;-71
2022/06/02 05:57:34;;;;;;;3.70;3.40;;;16.10;81.30;;;;;;5075992;28;20229;-71
2022/06/02 06:00:15;;;;;;;4.65;4.05;;;16.20;81.40;;;;;;5075689;28;20186;-71
2022/06/02 06:03:14;;;;;;;3.97;3.65;;;16.10;81.00;;;;;;5075608;28;20212;-70
2022/06/02 06:05:45;;;;;;;4.50;4.10;;;16.10;81.20;;;;;;5075849;28;20202;-70
2022/06/02 06:08:46;;;;;;;3.70;3.50;;;16.20;82.10;;;;;;5075602;28;20700;-70
2022/06/02 06:11:39;;;;;;;4.60;3.45;;;16.10;82.20;;;;;;5075714;28;20719;-70
2022/06/02 06:14:16;;;;;;;4.20;3.90;;;16.10;81.80;;;;;;5075388;28;20546;-70
2022/06/02 06:16:54;;;;;;;3.88;3.58;;;16.20;82.50;;;;;;5075531;28;20197;-71
2022/06/02 06:19:44;;;;;;;6.88;3.90;;;16.20;82.80;;;;;;5075199;28;20225;-70
2022/06/02 06:22:41;;;;;;;3.70;3.40;;;16.20;83.40;;;;;;5075379;28;20198;-70
2022/06/02 06:25:20;;;;;;;3.83;3.40;;;16.40;82.80;;;;;;5075317;28;20696;-70
2022/06/02 06:28:02;;;;;;;4.07;3.72;;;16.40;81.40;;;;;;5075353;28;20257;-71
2022/06/02 06:30:38;;;;;;;5.38;3.47;;;16.50;80.80;;;;;;5075381;28;20245;-71
2022/06/02 06:33:16;;;;;;;3.70;3.40;;;16.50;80.60;;;;;;5075311;28;20205;-70
2022/06/02 06:36:05;;;;;;;3.40;3.20;;;16.60;80.60;;;;;;5074888;28;20218;-71
2022/06/02 06:38:55;;;;;;;3.75;3.55;;;16.60;80.40;;;;;;5075608;28;20245;-71
2022/06/02 06:41:53;;;;;;;3.88;3.58;;;16.60;80.50;;;;;;5075194;28;20209;-71
2022/06/02 06:44:25;;;;;;;3.75;3.45;;;16.50;80.80;;;;;;5074852;28;20216;-71
2022/06/02 06:47:01;;;;;;;3.75;3.45;;;16.50;79.90;;;;;;5075018;28;20205;-70
2022/06/02 06:49:51;;;;;;;3.95;3.65;;;16.60;80.10;;;;;;5075010;28;20633;-70
2022/06/02 06:52:46;;;;;;;3.83;3.45;;;16.70;79.80;;;;;;5074776;28;20579;-70
2022/06/02 06:55:29;;;;;;;3.70;3.40;;;16.80;78.80;;;;;;5074798;28;20313;-70
2022/06/02 06:58:08;;;;;;;3.22;3.03;;;17.00;78.30;;;;;;5074800;28;20222;-71
2022/06/02 07:00:40;;;;;;;3.83;3.42;;;17.20;77.80;;;;;;5074527;28;20186;-71
2022/06/02 07:03:17;;;;;;;3.45;3.00;;;17.40;76.80;;;;;;5074390;28;20213;-71
2022/06/02 07:05:48;;;;;;;3.08;2.88;;;17.50;76.10;;;;;;5074677;28;20213;-71
2022/06/02 07:08:30;;;;;;;3.45;3.20;;;17.60;75.70;;;;;;5074447;28;20222;-71
2022/06/02 07:11:04;;;;;;;3.45;3.25;;;17.80;75.00;;;;;;5074649;28;20191;-71
2022/06/02 07:13:35;;;;;;;3.08;2.70;;;18.10;75.00;;;;;;5074084;28;20205;-71
2022/06/02 07:16:11;;;;;;;3.20;3.00;;;18.70;75.20;;;;;;5074141;28;20220;-71
2022/06/02 07:18:51;;;;;;;3.00;2.80;;;18.90;72.20;;;;;;5074103;28;20229;-71
2022/06/02 07:21:33;;;;;;;2.60;2.40;;;19.00;73.10;;;;;;5074369;28;20218;-71
2022/06/02 07:24:16;;;;;;;3.25;3.05;;;19.00;74.40;;;;;;5074057;28;20206;-71
2022/06/02 07:26:54;;;;;;;3.55;3.25;;;19.10;73.90;;;;;;5074491;28;20210;-71
2022/06/02 07:29:36;;;;;;;3.25;3.05;;;19.00;71.90;;;;;;5063206;28;20229;-71
2022/06/02 07:32:38;;;;;;;3.17;2.97;;;18.90;71.20;;;;;;5071024;28;20207;-71
2022/06/02 07:35:47;;;;;;;3.50;3.20;;;18.70;70.30;;;;;;5020988;28;20317;-71
2022/06/02 07:38:28;;;;;;;3.42;3.13;;;18.50;70.40;;;;;;5072818;28;20218;-71
2022/06/02 07:41:08;;;;;;;4.25;3.33;;;18.20;71.60;;;;;;5072367;28;20260;-71
2022/06/02 07:44:01;;;;;;;3.35;3.05;;;18.20;72.50;;;;;;5072453;28;20203;-71
2022/06/02 07:46:43;;;;;;;3.38;3.08;;;18.30;71.40;;;;;;5072697;28;20206;-71
2022/06/02 07:49:28;;;;;;;5.50;3.00;;;18.50;70.00;;;;;;5071990;28;20237;-71
2022/06/02 07:52:01;;;;;;;3.00;2.80;;;18.80;69.90;;;;;;5072508;28;20324;-71
2022/06/02 07:54:40;;;;;;;2.50;2.40;;;19.10;68.50;;;;;;5071881;28;20298;-73
2022/06/02 07:57:18;;;;;;;4.20;3.00;;;19.60;67.60;;;;;;5072495;28;20920;-72
2022/06/02 08:00:02;;;;;;;2.73;2.60;;;20.30;66.10;;;;;;5072750;28;20445;-73
2022/06/02 08:02:48;;;;;;;3.60;3.30;;;21.10;62.70;;;;;;5072161;28;20452;-72
2022/06/02 08:05:29;;;;;;;3.03;2.70;;;21.70;61.30;;;;;;5072798;28;20850;-72
2022/06/02 08:07:59;;;;;;;3.10;2.90;;;21.90;61.60;;;;;;5072171;28;20464;-72
2022/06/02 08:10:36;;;;;;;3.67;3.37;;;21.90;60.70;;;;;;5072553;28;20450;-73
2022/06/02 08:13:16;;;;;;;3.00;2.80;;;21.60;59.70;;;;;;5072064;28;20444;-73
2022/06/02 08:15:51;;;;;;;3.13;2.93;;;21.10;61.00;;;;;;5072423;28;20521;-72
2022/06/02 08:18:38;;;;;;;3.33;3.13;;;20.60;62.80;;;;;;5073579;28;20476;-74
2022/06/02 08:21:16;;;;;;;2.87;2.70;;;20.30;64.10;;;;;;5073590;28;20535;-71
2022/06/02 08:24:12;;;;;;;4.30;3.13;;;20.20;63.10;;;;;;5073424;28;20478;-71
2022/06/02 08:26:53;;;;;;;3.10;2.90;;;20.30;63.60;;;;;;5068290;28;20456;-71
2022/06/02 08:29:37;;;;;;;3.20;3.00;;;20.40;64.20;;;;;;5073498;28;20474;-71
2022/06/02 08:32:21;;;;;;;3.00;2.80;;;20.60;64.00;;;;;;5073597;28;20447;-71
2022/06/02 08:34:57;;;;;;;3.33;3.03;;;20.90;63.90;;;;;;5073366;28;20519;-71
2022/06/02 08:37:35;;;;;;;2.57;2.43;;;21.80;61.30;;;;;;5073395;28;20433;-71
2022/06/02 08:40:32;;;;;;;3.13;2.60;;;22.30;58.70;;;;;;5073437;28;20446;-71
2022/06/02 08:43:36;;;;;;;2.87;2.67;;;22.50;58.40;;;;;;5073056;28;20453;-71
2022/06/02 08:46:28;;;;;;;3.10;2.80;;;22.70;57.80;;;;;;5072968;28;20482;-71
2022/06/02 08:49:22;;;;;;;5.03;2.93;;;23.60;58.40;;;;;;5072916;28;20465;-71
2022/06/02 08:52:25;;;;;;;3.10;2.47;;;24.90;54.70;;;;;;5066967;28;20444;-71
2022/06/02 08:55:44;;;;;;;2.30;2.20;;;25.80;51.30;;;;;;5073044;28;20542;-71
2022/06/02 08:58:53;;;;;;;4.30;2.60;;;27.60;51.80;;;;;;5073187;28;20479;-71
2022/06/02 09:01:40;;;;;;;2.23;2.13;;;29.00;46.50;;;;;;5077038;28;20439;-71
2022/06/02 09:04:48;;;;;;;2.90;2.70;;;29.90;42.60;;;;;;5076518;28;20448;-72
2022/06/02 09:07:42;;;;;;;3.00;2.87;;;30.80;41.80;;;;;;5077185;28;20442;-72
2022/06/02 09:10:32;;;;;;;2.80;2.60;;;30.90;39.40;;;;;;5076597;28;20433;-72
2022/06/02 09:13:48;;;;;;;3.10;2.90;;;31.30;39.30;;;;;;5076651;28;20451;-71
2022/06/02 09:16:23;;;;;;;2.87;2.67;;;31.50;37.50;;;;;;5014820;28;20471;-71
2022/06/02 09:19:25;;;;;;;3.30;2.83;;;30.40;38.40;;;;;;5065031;28;20547;-71
2022/06/02 09:22:18;;;;;;;2.70;2.50;;;30.60;38.90;;;;;;5076813;28;20440;-72
2022/06/02 09:24:52;;;;;;;2.40;2.30;;;31.90;39.50;;;;;;5076490;28;20441;-72
2022/06/02 09:27:53;;;;;;;2.83;2.60;;;33.20;37.30;;;;;;5076480;28;20436;-72
2022/06/02 09:30:27;;;;;;;3.20;3.00;;;33.80;36.50;;;;;;5071942;28;20455;-72
2022/06/02 09:36:09;;;;;;;3.03;2.87;;;33.60;34.40;;;;;;5076390;28;20819;-71
2022/06/02 09:38:55;;;;;;;3.10;2.83;;;32.20;35.40;;;;;;5076014;28;20975;-71
2022/06/02 09:41:42;;;;;;;2.80;2.70;;;30.70;36.90;;;;;;5076297;28;20425;-71
2022/06/02 09:44:17;;;;;;;3.13;2.93;;;30.20;38.60;;;;;;5076332;28;20539;-71
2022/06/02 09:47:22;;;;;;;2.90;2.70;;;29.50;40.30;;;;;;5076321;28;20432;-71
2022/06/02 09:50:31;;;;;;;3.50;3.30;;;29.60;39.30;;;;;;5076732;28;20435;-72
2022/06/02 09:53:46;;;;;;;2.80;2.60;;;30.20;40.00;;;;;;5075690;28;20456;-72
2022/06/02 09:56:35;;;;;;;3.13;2.83;;;31.20;37.70;;;;;;5014179;28;20475;-72
2022/06/02 09:59:23;;;;;;;2.87;2.67;;;31.10;38.10;;;;;;5070617;28;20571;-72
2022/06/02 10:02:03;;;;;;;2.53;2.40;;;31.40;37.60;;;;;;5076113;28;20532;-71
2022/06/02 10:04:47;;;;;;;3.23;2.93;;;30.80;38.20;;;;;;5075715;28;20459;-71
2022/06/02 10:07:50;;;;;;;3.10;2.90;;;29.80;40.30;;;;;;5075858;28;20437;-72
2022/06/02 10:10:27;;;;;;;3.17;2.97;;;30.30;40.10;;;;;;5056036;28;20456;-72
2022/06/02 10:13:27;;;;;;;3.30;3.10;;;30.10;39.10;;;;;;5075545;28;20444;-72
2022/06/02 10:16:31;;;;;;;3.00;2.80;;;29.70;40.30;;;;;;5075861;28;20483;-72
2022/06/02 10:19:18;;;;;;;3.03;2.83;;;28.90;40.30;;;;;;5039619;28;20475;-72
2022/06/02 10:21:57;;;;;;;3.07;2.87;;;29.80;40.90;;;;;;5075576;28;20449;-72
2022/06/02 10:24:58;;;;;;;2.30;2.20;;;29.60;39.90;;;;;;5075196;28;20926;-72
2022/06/02 10:28:06;;;;;;;3.37;3.17;;;29.70;41.00;;;;;;5075373;28;20444;-72
2022/06/02 10:31:10;;;;;;;3.40;2.80;;;29.10;42.20;;;;;;5075190;28;20887;-72
2022/06/02 10:34:24;;;;;;;2.90;2.67;;;28.60;41.70;;;;;;5074961;28;20448;-71
2022/06/02 10:37:15;;;;;;;3.37;2.90;;;27.50;43.00;;;;;;5075456;28;20560;-72
2022/06/02 10:40:08;;;;;;;2.77;2.30;;;26.20;45.40;;;;;;5074877;28;20461;-71
2022/06/02 10:43:12;;;;;;;3.20;3.00;;;26.00;46.30;;;;;;5068226;28;20453;-71
2022/06/02 10:46:34;;;;;;;2.80;2.60;;;26.30;46.40;;;;;;5043792;28;20456;-71
2022/06/02 10:49:13;;;;;;;3.13;2.93;;;26.00;46.80;;;;;;5074714;28;20467;-71
2022/06/02 10:52:29;;;;;;;3.53;3.30;;;25.50;47.30;;;;;;5075165;28;20433;-71
2022/06/02 10:55:14;;;;;;;3.07;2.87;;;25.30;48.90;;;;;;5074896;28;20459;-71
2022/06/02 10:58:07;;;;;;;8.70;5.07;;;25.10;49.30;;;;;;5074535;28;20993;-71
2022/06/02 11:01:05;;;;;;;3.47;3.27;;;24.80;50.00;;;;;;5046163;28;20451;-71
2022/06/02 11:04:07;;;;;;;3.03;2.83;;;24.50;50.30;;;;;;5074556;28;20434;-71
2022/06/02 11:07:05;;;;;;;3.57;3.37;;;24.50;50.70;;;;;;5074617;28;20519;-71
2022/06/02 11:10:17;;;;;;;3.33;3.13;;;24.30;51.10;;;;;;5074276;28;20547;-71
2022/06/02 11:13:22;;;;;;;3.03;2.83;;;24.50;50.90;;;;;;5074525;28;20454;-71
2022/06/02 11:16:29;;;;;;;3.20;3.00;;;24.70;49.60;;;;;;5074384;28;20451;-71
2022/06/02 11:19:35;;;;;;;2.57;2.47;;;24.90;49.50;;;;;;5073808;28;20550;-71
2022/06/02 11:22:31;;;;;;;3.20;3.00;;;25.00;49.30;;;;;;5074221;28;20479;-71
2022/06/02 11:25:31;;;;;;;3.30;3.10;;;25.00;49.80;;;;;;5074198;28;20443;-71
2022/06/02 11:28:30;;;;;;;3.10;2.90;;;24.90;49.70;;;;;;5074191;28;20939;-71
2022/06/02 11:31:16;;;;;;;3.40;3.10;;;25.00;50.10;;;;;;5074137;28;20443;-71
2022/06/02 11:34:24;;;;;;;3.07;2.80;;;25.00;49.20;;;;;;5073829;28;20789;-71
2022/06/02 11:37:34;;;;;;;2.73;2.53;;;25.10;50.40;;;;;;5017694;28;20477;-71
2022/06/02 11:40:33;;;;;;;3.23;3.03;;;25.40;49.80;;;;;;5074252;28;20452;-71
2022/06/02 11:43:15;;;;;;;3.10;2.90;;;25.10;49.10;;;;;;5073650;28;20965;-71
2022/06/02 11:46:21;;;;;;;3.37;3.07;;;24.90;50.10;;;;;;5073966;28;20449;-71
2022/06/02 11:49:25;;;;;;;3.63;3.33;;;24.80;50.60;;;;;;5073928;28;20471;-71
2022/06/02 11:52:13;;;;;;;2.83;2.73;;;24.50;51.00;;;;;;5017207;28;20462;-71
2022/06/02 11:55:01;;;;;;;3.23;3.03;;;24.70;50.90;;;;;;5073691;28;20818;-71
2022/06/02 11:57:48;;;;;;;3.40;3.20;;;24.70;50.30;;;;;;5073714;28;20479;-71
2022/06/02 12:00:56;;;;;;;3.40;3.10;;;25.00;51.50;;;;;;5073921;28;20436;-71
2022/06/02 12:03:47;;;;;;;3.97;2.90;;;25.20;50.70;;;;;;5052164;28;20457;-71
2022/06/02 12:06:41;;;;;;;3.10;2.90;;;25.10;50.80;;;;;;5073589;28;20953;-71
2022/06/02 12:09:36;;;;;;;3.20;2.90;;;25.00;50.40;;;;;;5071236;28;20480;-71
2022/06/02 12:12:22;;;;;;;3.40;3.20;;;25.00;50.30;;;;;;5073393;28;20991;-71
2022/06/02 12:15:22;;;;;;;3.20;3.00;;;24.80;50.60;;;;;;5073532;28;20436;-71
2022/06/02 12:18:02;;;;;;;3.37;3.17;;;24.60;52.10;;;;;;5073435;28;20550;-71
2022/06/02 12:20:55;;;;;;;3.13;2.93;;;24.40;51.10;;;;;;5073591;28;20446;-71
2022/06/02 12:23:40;;;;;;;3.27;3.07;;;24.30;52.80;;;;;;5039910;28;20479;-71
2022/06/02 12:26:18;;;;;;;3.50;3.30;;;24.60;51.50;;;;;;5073468;28;20456;-71
2022/06/02 12:29:13;;;;;;;3.83;3.53;;;24.80;52.60;;;;;;5073490;28;20487;-71
2022/06/02 12:32:12;;;;;;;3.40;3.20;;;24.90;51.40;;;;;;5073201;28;20456;-71
2022/06/02 12:35:02;;;;;;;3.60;3.40;;;24.80;50.80;;;;;;5075887;28;20817;-71
2022/06/02 12:37:59;;;;;;;3.67;3.37;;;24.50;51.70;;;;;;5077676;28;20501;-71
2022/06/02 12:40:37;;;;;;;3.60;3.30;;;24.40;52.40;;;;;;5072365;28;20443;-71
2022/06/02 12:43:36;;;;;;;3.33;3.13;;;24.30;53.50;;;;;;5077231;28;20427;-71
2022/06/02 12:46:29;;;;;;;3.63;3.33;;;24.10;53.60;;;;;;5077357;28;20530;-71
2022/06/02 12:49:39;;;;;;;3.70;3.40;;;24.00;53.60;;;;;;5077020;28;20903;-71
2022/06/02 12:52:46;;;;;;;3.70;3.43;;;23.90;52.90;;;;;;5071669;28;20476;-71
2022/06/02 12:55:38;;;;;;;3.50;3.30;;;23.80;53.80;;;;;;5051274;28;20450;-71
2022/06/02 12:58:56;;;;;;;3.30;3.10;;;23.90;53.50;;;;;;5063792;28;20491;-71
2022/06/02 13:01:48;;;;;;;3.17;2.93;;;24.20;53.30;;;;;;5032059;28;20446;-71
2022/06/02 13:04:50;;;;;;;3.57;3.37;;;24.20;53.50;;;;;;5076802;28;20444;-71
2022/06/02 13:07:45;;;;;;;3.27;2.97;;;24.20;53.70;;;;;;5076949;28;20439;-71
2022/06/02 13:10:29;;;;;;;3.13;2.93;;;24.10;53.80;;;;;;5046138;28;20446;-71
2022/06/02 13:13:36;;;;;;;3.47;3.17;;;24.00;53.40;;;;;;5076850;28;20449;-71
2022/06/02 13:16:30;;;;;;;3.10;2.90;;;24.10;54.30;;;;;;5068168;28;20451;-71
2022/06/02 13:19:36;;;;;;;3.10;2.90;;;24.20;53.50;;;;;;5073708;28;20475;-71
2022/06/02 13:22:43;;;;;;;3.27;3.07;;;24.50;53.70;;;;;;5076676;28;20526;-71
2022/06/02 13:25:47;;;;;;;3.73;3.03;;;24.70;53.20;;;;;;5076390;28;20450;-71
2022/06/02 13:28:44;;;;;;;3.50;3.20;;;24.60;52.70;;;;;;5061315;28;20570;-71
2022/06/02 13:31:49;;;;;;;3.33;3.10;;;24.70;53.60;;;;;;5076470;28;20829;-71
2022/06/02 13:35:00;;;;;;;3.50;3.20;;;24.60;52.50;;;;;;5076661;28;20445;-71
2022/06/02 13:37:46;;;;;;;3.90;3.60;;;24.50;52.70;;;;;;5075840;28;20479;-71
2022/06/02 13:40:22;;;;;;;3.43;3.23;;;24.40;53.20;;;;;;5076138;28;20963;-71
2022/06/02 13:43:40;;;;;;;3.33;3.13;;;24.40;53.90;;;;;;5075947;28;20451;-71
2022/06/02 13:46:38;;;;;;;3.10;2.90;;;24.30;53.70;;;;;;5074857;28;20435;-71
2022/06/02 13:49:34;;;;;;;3.30;3.10;;;24.10;54.00;;;;;;5076860;28;20470;-71
2022/06/02 13:52:35;;;;;;;3.57;3.27;;;24.00;54.10;;;;;;5070812;28;20873;-71
2022/06/02 13:58:24;;;;;;;3.40;3.20;;;24.00;54.10;;;;;;5076219;28;20499;-71
2022/06/02 14:01:16;;;;;;;4.10;3.20;;;23.80;53.90;;;;;;5075824;28;20480;-71
2022/06/02 14:04:07;;;;;;;3.23;3.03;;;23.90;54.20;;;;;;5075826;28;20453;-70
2022/06/02 14:06:40;;;;;;;3.70;3.40;;;24.00;54.80;;;;;;5075847;28;20796;-71
2022/06/02 14:09:32;;;;;;;3.67;3.37;;;24.10;54.50;;;;;;5075696;28;20471;-71
2022/06/02 14:12:24;;;;;;;3.90;3.60;;;24.10;54.30;;;;;;5075800;28;20452;-71
2022/06/02 14:15:18;;;;;;;3.40;3.20;;;24.00;54.60;;;;;;5075748;28;20435;-71
2022/06/02 14:18:08;;;;;;;3.60;3.40;;;24.00;54.60;;;;;;5075495;28;20493;-71
2022/06/02 14:20:43;;;;;;;4.10;3.80;;;24.10;54.40;;;;;;5075384;28;20423;-70
2022/06/02 14:23:20;;;;;;;3.60;3.40;;;24.20;54.10;;;;;;5075714;28;20439;-70
2022/06/02 14:25:59;;;;;;;3.50;3.30;;;24.20;54.80;;;;;;5075378;28;20534;-71
2022/06/02 14:28:43;;;;;;;3.40;3.20;;;24.30;53.90;;;;;;5075300;28;20459;-71
2022/06/02 14:31:19;;;;;;;3.20;3.00;;;24.50;54.40;;;;;;5075173;28;20432;-71
2022/06/02 14:33:54;;;;;;;3.80;3.40;;;24.60;54.10;;;;;;5075201;28;20479;-71
2022/06/02 14:36:29;;;;;;;3.57;3.27;;;24.30;54.00;;;;;;5075274;28;20534;-71
2022/06/02 14:39:15;;;;;;;3.63;3.33;;;24.10;54.60;;;;;;5074815;28;20993;-71